createdAt,value
2017-04-27T00:00:03.338Z,3.25
2017-04-27T00:00:07.530Z,3.26
2017-04-27T00:00:11.980Z,3.26
2017-04-27T00:00:16.286Z,3.25
2017-04-27T00:00:20.712Z,3.26
2017-04-27T00:00:25.136Z,3.26
2017-04-27T00:00:29.569Z,3.26
2017-04-27T00:00:33.876Z,3.26
2017-04-27T00:00:38.305Z,3.26
2017-04-27T00:00:42.728Z,3.26
2017-04-27T00:00:47.047Z,3.26
2017-04-27T00:00:51.511Z,3.26
2017-04-27T00:00:55.938Z,3.26
2017-04-27T00:01:00.388Z,3.26
2017-04-27T00:01:05.201Z,3.27
2017-04-27T00:01:09.506Z,3.26
2017-04-27T00:01:13.697Z,3.26
2017-04-27T00:01:18.127Z,3.27
2017-04-27T00:01:22.549Z,3.26
2017-04-27T00:01:26.978Z,3.27
2017-04-27T00:01:31.407Z,3.26
2017-04-27T00:01:35.875Z,3.27
2017-04-27T00:01:40.181Z,3.27
2017-04-27T00:01:44.601Z,3.27
2017-04-27T00:01:49.031Z,3.27
2017-04-27T00:01:53.459Z,3.28
2017-04-27T00:01:57.881Z,3.27
2017-04-27T00:02:02.189Z,3.28
2017-04-27T00:02:06.505Z,3.28
2017-04-27T00:02:10.813Z,3.27
2017-04-27T00:02:15.007Z,3.27
2017-04-27T00:02:19.317Z,3.27
2017-04-27T00:02:23.651Z,3.27
2017-04-27T00:02:28.077Z,3.28
2017-04-27T00:02:32.382Z,3.27
2017-04-27T00:02:36.849Z,3.28
2017-04-27T00:02:41.159Z,3.27
2017-04-27T00:02:45.580Z,3.27
2017-04-27T00:02:49.892Z,3.27
2017-04-27T00:02:54.323Z,3.27
2017-04-27T00:02:58.748Z,3.27
2017-04-27T00:03:03.173Z,3.27
2017-04-27T00:03:07.597Z,3.28
2017-04-27T00:03:12.055Z,3.28
2017-04-27T00:03:16.365Z,3.27
2017-04-27T00:03:20.786Z,3.28
2017-04-27T00:03:25.096Z,3.27
2017-04-27T00:03:29.523Z,3.27
2017-04-27T00:03:33.829Z,3.27
2017-04-27T00:03:38.255Z,3.28
2017-04-27T00:03:42.684Z,3.28
2017-04-27T00:03:46.994Z,3.28
2017-04-27T00:03:51.419Z,3.27
2017-04-27T00:03:55.853Z,3.28
2017-04-27T00:04:00.286Z,3.27
2017-04-27T00:04:04.714Z,3.27
2017-04-27T00:04:08.907Z,3.27
2017-04-27T00:04:13.218Z,3.27
2017-04-27T00:04:17.640Z,3.27
2017-04-27T00:04:22.062Z,3.27
2017-04-27T00:04:26.493Z,3.27
2017-04-27T00:04:30.917Z,3.27
2017-04-27T00:04:35.344Z,3.26
2017-04-27T00:04:39.768Z,3.27
2017-04-27T00:04:44.201Z,3.27
2017-04-27T00:04:48.635Z,3.27
2017-04-27T00:04:53.063Z,3.27
2017-04-27T00:04:57.487Z,3.28
2017-04-27T00:05:01.923Z,3.27
2017-04-27T00:05:06.348Z,3.28
2017-04-27T00:05:10.536Z,3.28
2017-04-27T00:05:14.956Z,3.27
2017-04-27T00:05:19.419Z,3.27
2017-04-27T00:05:23.843Z,3.27
2017-04-27T00:05:27.913Z,3.27
2017-04-27T00:05:32.333Z,3.26
2017-04-27T00:05:36.764Z,3.27
2017-04-27T00:05:41.190Z,3.27
2017-04-27T00:05:45.615Z,3.26
2017-04-27T00:05:50.051Z,3.27
2017-04-27T00:05:54.483Z,3.27
2017-04-27T00:05:58.906Z,3.26
2017-04-27T00:06:03.337Z,3.27
2017-04-27T00:06:07.760Z,3.26
2017-04-27T00:06:12.180Z,3.27
2017-04-27T00:06:16.370Z,3.26
2017-04-27T00:06:20.825Z,3.26
2017-04-27T00:06:25.139Z,3.26
2017-04-27T00:06:29.562Z,3.26
2017-04-27T00:06:33.880Z,3.25
2017-04-27T00:06:38.307Z,3.26
2017-04-27T00:06:42.728Z,3.26
2017-04-27T00:06:47.157Z,3.26
2017-04-27T00:06:51.590Z,3.26
2017-04-27T00:06:56.015Z,3.25
2017-04-27T00:07:00.443Z,3.26
2017-04-27T00:07:04.922Z,3.25
2017-04-27T00:07:09.349Z,3.25
2017-04-27T00:07:13.538Z,3.25
2017-04-27T00:07:17.971Z,3.25
2017-04-27T00:07:22.281Z,3.25
2017-04-27T00:07:26.708Z,3.25
2017-04-27T00:07:31.129Z,3.25
2017-04-27T00:07:35.441Z,3.25
2017-04-27T00:07:39.864Z,3.24
2017-04-27T00:07:44.295Z,3.25
2017-04-27T00:07:48.728Z,3.24
2017-04-27T00:07:53.044Z,3.24
2017-04-27T00:07:57.470Z,3.24
2017-04-27T00:08:01.898Z,3.24
2017-04-27T00:08:06.339Z,3.23
2017-04-27T00:08:10.644Z,3.25
2017-04-27T00:08:15.082Z,3.23
2017-04-27T00:08:19.509Z,3.24
2017-04-27T00:08:23.929Z,3.23
2017-04-27T00:08:28.355Z,3.24
2017-04-27T00:08:32.784Z,3.23
2017-04-27T00:08:37.209Z,3.22
2017-04-27T00:08:41.632Z,3.23
2017-04-27T00:08:46.057Z,3.22
2017-04-27T00:08:50.497Z,3.23
2017-04-27T00:08:54.802Z,3.23
2017-04-27T00:08:59.227Z,3.23
2017-04-27T00:09:03.707Z,3.22
2017-04-27T00:09:08.139Z,3.22
2017-04-27T00:09:12.335Z,3.22
2017-04-27T00:09:16.641Z,3.23
2017-04-27T00:09:21.072Z,3.22
2017-04-27T00:09:25.504Z,3.22
2017-04-27T00:09:29.930Z,3.22
2017-04-27T00:09:34.359Z,3.22
2017-04-27T00:09:38.787Z,3.22
2017-04-27T00:09:43.214Z,3.22
2017-04-27T00:09:47.641Z,3.22
2017-04-27T00:09:52.068Z,3.22
2017-04-27T00:09:56.496Z,3.22
2017-04-27T00:10:00.809Z,3.23
2017-04-27T00:10:05.414Z,3.22
2017-04-27T00:10:09.610Z,3.22
2017-04-27T00:10:13.928Z,3.22
2017-04-27T00:10:18.352Z,3.22
2017-04-27T00:10:22.784Z,3.21
2017-04-27T00:10:27.216Z,3.21
2017-04-27T00:10:31.528Z,3.22
2017-04-27T00:10:35.863Z,3.22
2017-04-27T00:10:40.291Z,3.22
2017-04-27T00:10:44.724Z,3.21
2017-04-27T00:10:49.163Z,3.22
2017-04-27T00:10:53.582Z,3.22
2017-04-27T00:10:58.004Z,3.22
2017-04-27T00:11:02.446Z,3.21
2017-04-27T00:11:06.752Z,3.22
2017-04-27T00:11:11.075Z,3.21
2017-04-27T00:11:15.389Z,3.21
2017-04-27T00:11:19.807Z,3.21
2017-04-27T00:11:24.229Z,3.22
2017-04-27T00:11:28.653Z,3.21
2017-04-27T00:11:33.083Z,3.21
2017-04-27T00:11:37.510Z,3.22
2017-04-27T00:11:41.941Z,3.21
2017-04-27T00:11:46.363Z,3.21
2017-04-27T00:11:50.792Z,3.2
2017-04-27T00:11:55.218Z,3.21
2017-04-27T00:11:59.403Z,3.21
2017-04-27T00:12:03.717Z,3.21
2017-04-27T00:12:08.027Z,3.21
2017-04-27T00:12:12.332Z,3.21
2017-04-27T00:12:16.651Z,3.21
2017-04-27T00:12:21.096Z,3.2
2017-04-27T00:12:25.522Z,3.21
2017-04-27T00:12:29.941Z,3.21
2017-04-27T00:12:34.248Z,3.22
2017-04-27T00:12:38.710Z,3.21
2017-04-27T00:12:43.136Z,3.21
2017-04-27T00:12:47.558Z,3.21
2017-04-27T00:12:51.977Z,3.21
2017-04-27T00:12:56.290Z,3.21
2017-04-27T00:13:00.719Z,3.21
2017-04-27T00:13:05.136Z,3.21
2017-04-27T00:13:09.560Z,3.2
2017-04-27T00:13:13.893Z,3.21
2017-04-27T00:13:18.197Z,3.21
2017-04-27T00:13:22.617Z,3.21
2017-04-27T00:13:26.922Z,3.22
2017-04-27T00:13:31.348Z,3.21
2017-04-27T00:13:35.813Z,3.21
2017-04-27T00:13:40.235Z,3.21
2017-04-27T00:13:44.662Z,3.21
2017-04-27T00:13:48.970Z,3.2
2017-04-27T00:13:53.395Z,3.21
2017-04-27T00:13:57.827Z,3.21
2017-04-27T00:14:02.135Z,3.2
2017-04-27T00:14:06.567Z,3.22
2017-04-27T00:14:11.004Z,3.2
2017-04-27T00:14:15.438Z,3.21
2017-04-27T00:14:19.867Z,3.21
2017-04-27T00:14:24.292Z,3.21
2017-04-27T00:14:28.618Z,3.21
2017-04-27T00:14:32.810Z,3.21
2017-04-27T00:14:37.238Z,3.21
2017-04-27T00:14:41.665Z,3.21
2017-04-27T00:14:46.090Z,3.21
2017-04-27T00:14:50.552Z,3.2
2017-04-27T00:14:55.014Z,3.21
2017-04-27T00:14:59.443Z,3.2
2017-04-27T00:15:03.955Z,3.21
2017-04-27T00:15:08.388Z,3.21
2017-04-27T00:15:12.808Z,3.2
2017-04-27T00:15:17.000Z,3.2
2017-04-27T00:15:21.316Z,3.2
2017-04-27T00:15:25.746Z,3.2
2017-04-27T00:15:30.172Z,3.2
2017-04-27T00:15:34.595Z,3.19
2017-04-27T00:15:39.024Z,3.21
2017-04-27T00:15:43.453Z,3.21
2017-04-27T00:15:47.883Z,3.21
2017-04-27T00:15:52.316Z,3.21
2017-04-27T00:15:56.757Z,3.21
2017-04-27T00:16:01.067Z,3.2
2017-04-27T00:16:05.372Z,3.19
2017-04-27T00:16:09.566Z,3.2
2017-04-27T00:16:14.001Z,3.2
2017-04-27T00:16:18.424Z,3.2
2017-04-27T00:16:22.855Z,3.2
2017-04-27T00:16:27.286Z,3.2
2017-04-27T00:16:31.711Z,3.2
2017-04-27T00:16:36.143Z,3.21
2017-04-27T00:16:40.330Z,3.2
2017-04-27T00:16:44.638Z,3.2
2017-04-27T00:16:49.069Z,3.2
2017-04-27T00:16:53.377Z,3.2
2017-04-27T00:16:57.680Z,3.2
2017-04-27T00:17:02.208Z,3.21
2017-04-27T00:17:06.522Z,3.2
2017-04-27T00:17:10.947Z,3.2
2017-04-27T00:17:15.375Z,3.2
2017-04-27T00:17:19.803Z,3.2
2017-04-27T00:17:24.229Z,3.2
2017-04-27T00:17:28.540Z,3.2
2017-04-27T00:17:32.972Z,3.2
2017-04-27T00:17:37.279Z,3.2
2017-04-27T00:17:41.710Z,3.21
2017-04-27T00:17:46.133Z,3.2
2017-04-27T00:17:50.562Z,3.2
2017-04-27T00:17:55.035Z,3.2
2017-04-27T00:17:59.460Z,3.2
2017-04-27T00:18:03.889Z,3.2
2017-04-27T00:18:08.312Z,3.2
2017-04-27T00:18:12.502Z,3.2
2017-04-27T00:18:16.933Z,3.21
2017-04-27T00:18:21.358Z,3.2
2017-04-27T00:18:25.542Z,3.2
2017-04-27T00:18:29.848Z,3.2
2017-04-27T00:18:34.157Z,3.2
2017-04-27T00:18:38.581Z,3.2
2017-04-27T00:18:43.004Z,3.2
2017-04-27T00:18:47.428Z,3.2
2017-04-27T00:18:51.877Z,3.21
2017-04-27T00:18:56.301Z,3.2
2017-04-27T00:19:00.721Z,3.2
2017-04-27T00:19:05.347Z,3.2
2017-04-27T00:19:09.773Z,3.2
2017-04-27T00:19:14.071Z,3.2
2017-04-27T00:19:18.512Z,3.2
2017-04-27T00:19:22.937Z,3.2
2017-04-27T00:19:27.361Z,3.19
2017-04-27T00:19:31.792Z,3.2
2017-04-27T00:19:36.215Z,3.21
2017-04-27T00:19:40.644Z,3.19
2017-04-27T00:19:45.062Z,3.2
2017-04-27T00:19:49.485Z,3.2
2017-04-27T00:19:53.925Z,3.2
2017-04-27T00:19:58.352Z,3.2
2017-04-27T00:20:02.656Z,3.19
2017-04-27T00:20:07.126Z,3.21
2017-04-27T00:20:11.321Z,3.2
2017-04-27T00:20:15.631Z,3.2
2017-04-27T00:20:20.060Z,3.2
2017-04-27T00:20:24.487Z,3.2
2017-04-27T00:20:28.913Z,3.2
2017-04-27T00:20:33.221Z,3.19
2017-04-27T00:20:37.650Z,3.2
2017-04-27T00:20:42.120Z,3.2
2017-04-27T00:20:46.552Z,3.19
2017-04-27T00:20:50.750Z,3.19
2017-04-27T00:20:55.211Z,3.2
2017-04-27T00:20:59.637Z,3.2
2017-04-27T00:21:04.215Z,3.2
2017-04-27T00:21:08.638Z,3.2
2017-04-27T00:21:13.062Z,3.19
2017-04-27T00:21:17.491Z,3.2
2017-04-27T00:21:21.912Z,3.19
2017-04-27T00:21:26.220Z,3.2
2017-04-27T00:21:30.645Z,3.2
2017-04-27T00:21:35.076Z,3.21
2017-04-27T00:21:39.270Z,3.2
2017-04-27T00:21:43.693Z,3.19
2017-04-27T00:21:48.002Z,3.2
2017-04-27T00:21:52.441Z,3.19
2017-04-27T00:21:56.873Z,3.19
2017-04-27T00:22:01.303Z,3.21
2017-04-27T00:22:05.668Z,3.2
2017-04-27T00:22:09.856Z,3.2
2017-04-27T00:22:14.042Z,3.19
2017-04-27T00:22:18.479Z,3.2
2017-04-27T00:22:22.911Z,3.2
2017-04-27T00:22:27.338Z,3.19
2017-04-27T00:22:31.762Z,3.2
2017-04-27T00:22:36.076Z,3.21
2017-04-27T00:22:40.397Z,3.2
2017-04-27T00:22:44.863Z,3.2
2017-04-27T00:22:49.283Z,3.2
2017-04-27T00:22:53.725Z,3.2
2017-04-27T00:22:58.154Z,3.2
2017-04-27T00:23:02.583Z,3.2
2017-04-27T00:23:07.019Z,3.21
2017-04-27T00:23:11.327Z,3.2
2017-04-27T00:23:15.638Z,3.2
2017-04-27T00:23:20.064Z,3.2
2017-04-27T00:23:24.376Z,3.2
2017-04-27T00:23:28.801Z,3.2
2017-04-27T00:23:33.111Z,3.2
2017-04-27T00:23:37.539Z,3.2
2017-04-27T00:23:41.988Z,3.2
2017-04-27T00:23:46.413Z,3.2
2017-04-27T00:23:50.849Z,3.21
2017-04-27T00:23:55.278Z,3.21
2017-04-27T00:23:59.699Z,3.2
2017-04-27T00:24:04.119Z,3.21
2017-04-27T00:24:08.322Z,3.21
2017-04-27T00:24:12.537Z,3.2
2017-04-27T00:24:16.842Z,3.2
2017-04-27T00:24:21.032Z,3.2
2017-04-27T00:24:25.487Z,3.21
2017-04-27T00:24:29.908Z,3.2
2017-04-27T00:24:34.337Z,3.2
2017-04-27T00:24:38.640Z,3.2
2017-04-27T00:24:43.070Z,3.2
2017-04-27T00:24:47.508Z,3.2
2017-04-27T00:24:51.934Z,3.2
2017-04-27T00:24:56.361Z,3.2
2017-04-27T00:25:00.793Z,3.2
2017-04-27T00:25:05.424Z,3.2
2017-04-27T00:25:09.746Z,3.2
2017-04-27T00:25:14.066Z,3.19
2017-04-27T00:25:18.492Z,3.2
2017-04-27T00:25:22.915Z,3.2
2017-04-27T00:25:27.342Z,3.2
2017-04-27T00:25:31.782Z,3.2
2017-04-27T00:25:36.216Z,3.2
2017-04-27T00:25:40.645Z,3.2
2017-04-27T00:25:45.070Z,3.2
2017-04-27T00:25:49.528Z,3.2
2017-04-27T00:25:53.957Z,3.2
2017-04-27T00:25:58.384Z,3.2
2017-04-27T00:26:02.515Z,3.2
2017-04-27T00:26:06.859Z,3.2
2017-04-27T00:26:11.287Z,3.19
2017-04-27T00:26:15.717Z,3.2
2017-04-27T00:26:20.191Z,3.19
2017-04-27T00:26:24.616Z,3.2
2017-04-27T00:26:28.921Z,3.2
2017-04-27T00:26:33.237Z,3.2
2017-04-27T00:26:37.667Z,3.19
2017-04-27T00:26:42.095Z,3.19
2017-04-27T00:26:46.521Z,3.19
2017-04-27T00:26:50.722Z,3.19
2017-04-27T00:26:55.164Z,3.18
2017-04-27T00:26:59.588Z,3.19
2017-04-27T00:27:04.170Z,3.19
2017-04-27T00:27:08.480Z,3.19
2017-04-27T00:27:12.905Z,3.19
2017-04-27T00:27:17.326Z,3.18
2017-04-27T00:27:21.760Z,3.19
2017-04-27T00:27:26.184Z,3.19
2017-04-27T00:27:30.609Z,3.19
2017-04-27T00:27:35.036Z,3.18
2017-04-27T00:27:39.505Z,3.19
2017-04-27T00:27:43.927Z,3.18
2017-04-27T00:27:48.232Z,3.18
2017-04-27T00:27:52.427Z,3.19
2017-04-27T00:27:56.851Z,3.18
2017-04-27T00:28:01.284Z,3.18
2017-04-27T00:28:05.709Z,3.17
2017-04-27T00:28:10.068Z,3.18
2017-04-27T00:28:14.385Z,3.18
2017-04-27T00:28:18.811Z,3.18
2017-04-27T00:28:23.236Z,3.17
2017-04-27T00:28:27.689Z,3.17
2017-04-27T00:28:32.114Z,3.17
2017-04-27T00:28:36.308Z,3.17
2017-04-27T00:28:40.621Z,3.17
2017-04-27T00:28:45.049Z,3.16
2017-04-27T00:28:49.359Z,3.16
2017-04-27T00:28:53.781Z,3.17
2017-04-27T00:28:58.201Z,3.16
2017-04-27T00:29:02.628Z,3.17
2017-04-27T00:29:07.058Z,3.16
2017-04-27T00:29:11.246Z,3.16
2017-04-27T00:29:15.673Z,3.16
2017-04-27T00:29:20.102Z,3.15
2017-04-27T00:29:24.528Z,3.15
2017-04-27T00:29:28.620Z,3.16
2017-04-27T00:29:33.049Z,3.15
2017-04-27T00:29:37.478Z,3.15
2017-04-27T00:29:41.907Z,3.15
2017-04-27T00:29:46.330Z,3.13
2017-04-27T00:29:50.761Z,3.14
2017-04-27T00:29:55.197Z,3.14
2017-04-27T00:29:59.623Z,3.14
2017-04-27T00:30:04.055Z,3.13
2017-04-27T00:30:08.486Z,3.13
2017-04-27T00:30:12.681Z,3.13
2017-04-27T00:30:16.864Z,3.13
2017-04-27T00:30:21.289Z,3.12
2017-04-27T00:30:25.712Z,3.13
2017-04-27T00:30:30.017Z,3.12
2017-04-27T00:30:34.442Z,3.12
2017-04-27T00:30:38.754Z,3.12
2017-04-27T00:30:43.186Z,3.11
2017-04-27T00:30:47.618Z,3.12
2017-04-27T00:30:52.054Z,3.11
2017-04-27T00:30:56.359Z,3.1
2017-04-27T00:31:00.780Z,3.1
2017-04-27T00:31:05.357Z,3.11
2017-04-27T00:31:09.670Z,3.11
2017-04-27T00:31:13.974Z,3.1
2017-04-27T00:31:18.166Z,3.1
2017-04-27T00:31:22.602Z,3.11
2017-04-27T00:31:27.027Z,3.09
2017-04-27T00:31:31.453Z,3.09
2017-04-27T00:31:35.883Z,3.09
2017-04-27T00:31:40.310Z,3.09
2017-04-27T00:31:44.622Z,3.1
2017-04-27T00:31:48.812Z,3.09
2017-04-27T00:31:53.122Z,3.09
2017-04-27T00:31:57.546Z,3.09
2017-04-27T00:32:01.970Z,3.08
2017-04-27T00:32:06.401Z,3.08
2017-04-27T00:32:10.592Z,3.09
2017-04-27T00:32:14.780Z,3.08
2017-04-27T00:32:19.202Z,3.08
2017-04-27T00:32:23.630Z,3.08
2017-04-27T00:32:27.937Z,3.08
2017-04-27T00:32:32.363Z,3.07
2017-04-27T00:32:36.441Z,3.08
2017-04-27T00:32:40.871Z,3.07
2017-04-27T00:32:45.345Z,3.06
2017-04-27T00:32:49.654Z,3.07
2017-04-27T00:32:54.083Z,3.06
2017-04-27T00:32:58.551Z,3.07
2017-04-27T00:33:02.907Z,3.06
2017-04-27T00:33:07.334Z,3.07
2017-04-27T00:33:11.660Z,3.06
2017-04-27T00:33:15.971Z,3.05
2017-04-27T00:33:20.396Z,3.06
2017-04-27T00:33:24.705Z,3.06
2017-04-27T00:33:29.129Z,3.05
2017-04-27T00:33:33.553Z,3.05
2017-04-27T00:33:37.995Z,3.05
2017-04-27T00:33:42.420Z,3.05
2017-04-27T00:33:46.849Z,3.04
2017-04-27T00:33:51.276Z,3.05
2017-04-27T00:33:55.709Z,3.04
2017-04-27T00:34:00.138Z,3.04
2017-04-27T00:34:04.594Z,3.04
2017-04-27T00:34:08.665Z,3.05
2017-04-27T00:34:13.013Z,3.04
2017-04-27T00:34:17.438Z,3.04
2017-04-27T00:34:21.746Z,3.04
2017-04-27T00:34:26.210Z,3.04
2017-04-27T00:34:30.639Z,3.02
2017-04-27T00:34:35.065Z,3.03
2017-04-27T00:34:39.492Z,3.03
2017-04-27T00:34:43.957Z,3.03
2017-04-27T00:34:48.390Z,3.02
2017-04-27T00:34:52.826Z,3.02
2017-04-27T00:34:57.294Z,3.02
2017-04-27T00:35:01.722Z,3.02
2017-04-27T00:35:06.041Z,3.02
2017-04-27T00:35:10.237Z,3.01
2017-04-27T00:35:14.544Z,3.01
2017-04-27T00:35:18.965Z,3.02
2017-04-27T00:35:23.389Z,3.01
2017-04-27T00:35:27.697Z,3.01
2017-04-27T00:35:32.124Z,3.01
2017-04-27T00:35:36.551Z,3.01
2017-04-27T00:35:40.984Z,3
2017-04-27T00:35:45.435Z,3
2017-04-27T00:35:49.868Z,3
2017-04-27T00:35:54.301Z,3
2017-04-27T00:35:58.766Z,3
2017-04-27T00:36:02.958Z,2.99
2017-04-27T00:36:07.160Z,2.99
2017-04-27T00:36:11.595Z,2.98
2017-04-27T00:36:15.898Z,2.99
2017-04-27T00:36:20.326Z,2.99
2017-04-27T00:36:24.666Z,2.98
2017-04-27T00:36:29.112Z,2.98
2017-04-27T00:36:33.421Z,2.97
2017-04-27T00:36:37.845Z,2.98
2017-04-27T00:36:42.282Z,2.97
2017-04-27T00:36:46.589Z,2.97
2017-04-27T00:36:51.016Z,2.97
2017-04-27T00:36:55.459Z,2.97
2017-04-27T00:36:59.890Z,2.97
2017-04-27T00:37:04.521Z,2.96
2017-04-27T00:37:08.858Z,2.96
2017-04-27T00:37:13.284Z,2.95
2017-04-27T00:37:17.591Z,2.95
2017-04-27T00:37:22.017Z,2.95
2017-04-27T00:37:26.343Z,2.95
2017-04-27T00:37:30.774Z,2.95
2017-04-27T00:37:35.207Z,2.95
2017-04-27T00:37:39.627Z,2.94
2017-04-27T00:37:44.054Z,2.94
2017-04-27T00:37:48.485Z,2.95
2017-04-27T00:37:52.912Z,2.94
2017-04-27T00:37:57.214Z,2.93
2017-04-27T00:38:01.521Z,2.93
2017-04-27T00:38:05.833Z,2.93
2017-04-27T00:38:10.134Z,2.93
2017-04-27T00:38:14.554Z,2.93
2017-04-27T00:38:18.977Z,2.93
2017-04-27T00:38:23.414Z,2.93
2017-04-27T00:38:27.722Z,2.93
2017-04-27T00:38:32.151Z,2.93
2017-04-27T00:38:36.575Z,2.92
2017-04-27T00:38:40.891Z,2.91
2017-04-27T00:38:45.200Z,2.92
2017-04-27T00:38:49.504Z,2.92
2017-04-27T00:38:53.942Z,2.92
2017-04-27T00:38:58.365Z,2.92
2017-04-27T00:39:02.674Z,2.91
2017-04-27T00:39:07.109Z,2.92
2017-04-27T00:39:11.546Z,2.91
2017-04-27T00:39:15.969Z,2.91
2017-04-27T00:39:20.398Z,2.91
2017-04-27T00:39:24.740Z,2.91
2017-04-27T00:39:29.162Z,2.9
2017-04-27T00:39:33.594Z,2.9
2017-04-27T00:39:38.033Z,2.91
2017-04-27T00:39:42.381Z,2.91
2017-04-27T00:39:46.811Z,2.9
2017-04-27T00:39:51.244Z,2.9
2017-04-27T00:39:55.667Z,2.9
2017-04-27T00:39:59.984Z,2.89
2017-04-27T00:40:04.649Z,2.9
2017-04-27T00:40:09.075Z,2.89
2017-04-27T00:40:13.383Z,2.89
2017-04-27T00:40:17.828Z,2.9
2017-04-27T00:40:22.259Z,2.88
2017-04-27T00:40:26.691Z,2.88
2017-04-27T00:40:31.005Z,2.88
2017-04-27T00:40:35.433Z,2.89
2017-04-27T00:40:39.745Z,2.89
2017-04-27T00:40:44.173Z,2.87
2017-04-27T00:40:48.602Z,2.88
2017-04-27T00:40:53.040Z,2.88
2017-04-27T00:40:57.467Z,2.88
2017-04-27T00:41:01.898Z,2.88
2017-04-27T00:41:06.324Z,2.87
2017-04-27T00:41:10.634Z,2.88
2017-04-27T00:41:14.826Z,2.88
2017-04-27T00:41:19.257Z,2.87
2017-04-27T00:41:23.566Z,2.88
2017-04-27T00:41:27.994Z,2.88
2017-04-27T00:41:32.430Z,2.88
2017-04-27T00:41:36.857Z,2.87
2017-04-27T00:41:41.281Z,2.86
2017-04-27T00:41:45.713Z,2.88
2017-04-27T00:41:50.040Z,2.87
2017-04-27T00:41:54.470Z,2.87
2017-04-27T00:41:58.903Z,2.87
2017-04-27T00:42:03.539Z,2.86
2017-04-27T00:42:07.846Z,2.88
2017-04-27T00:42:12.159Z,2.87
2017-04-27T00:42:16.470Z,2.87
2017-04-27T00:42:20.779Z,2.87
2017-04-27T00:42:25.200Z,2.86
2017-04-27T00:42:29.626Z,2.87
2017-04-27T00:42:33.972Z,2.88
2017-04-27T00:42:38.394Z,2.87
2017-04-27T00:42:42.815Z,2.87
2017-04-27T00:42:47.243Z,2.87
2017-04-27T00:42:51.673Z,2.86
2017-04-27T00:42:55.974Z,2.87
2017-04-27T00:43:00.397Z,2.87
2017-04-27T00:43:05.028Z,2.87
2017-04-27T00:43:09.214Z,2.87
2017-04-27T00:43:13.529Z,2.87
2017-04-27T00:43:17.957Z,2.86
2017-04-27T00:43:22.380Z,2.86
2017-04-27T00:43:26.811Z,2.87
2017-04-27T00:43:31.245Z,2.86
2017-04-27T00:43:35.569Z,2.87
2017-04-27T00:43:40.005Z,2.86
2017-04-27T00:43:44.314Z,2.86
2017-04-27T00:43:48.742Z,2.87
2017-04-27T00:43:53.162Z,2.86
2017-04-27T00:43:57.361Z,2.87
2017-04-27T00:44:01.784Z,2.87
2017-04-27T00:44:06.303Z,2.87
2017-04-27T00:44:10.611Z,2.87
2017-04-27T00:44:14.802Z,2.87
2017-04-27T00:44:19.222Z,2.87
2017-04-27T00:44:23.653Z,2.87
2017-04-27T00:44:28.079Z,2.87
2017-04-27T00:44:32.502Z,2.87
2017-04-27T00:44:36.969Z,2.88
2017-04-27T00:44:41.157Z,2.87
2017-04-27T00:44:45.582Z,2.87
2017-04-27T00:44:50.015Z,2.87
2017-04-27T00:44:54.444Z,2.88
2017-04-27T00:44:58.757Z,2.88
2017-04-27T00:45:03.244Z,2.88
2017-04-27T00:45:07.678Z,2.88
2017-04-27T00:45:12.112Z,2.87
2017-04-27T00:45:16.537Z,2.88
2017-04-27T00:45:20.959Z,2.88
2017-04-27T00:45:25.387Z,2.87
2017-04-27T00:45:29.704Z,2.88
2017-04-27T00:45:34.012Z,2.87
2017-04-27T00:45:38.454Z,2.88
2017-04-27T00:45:42.927Z,2.88
2017-04-27T00:45:47.347Z,2.87
2017-04-27T00:45:51.780Z,2.88
2017-04-27T00:45:56.240Z,2.88
2017-04-27T00:46:00.662Z,2.88
2017-04-27T00:46:05.312Z,2.88
2017-04-27T00:46:09.633Z,2.88
2017-04-27T00:46:13.941Z,2.88
2017-04-27T00:46:18.272Z,2.88
2017-04-27T00:46:22.575Z,2.89
2017-04-27T00:46:26.995Z,2.88
2017-04-27T00:46:31.420Z,2.87
2017-04-27T00:46:35.883Z,2.89
2017-04-27T00:46:40.315Z,2.88
2017-04-27T00:46:44.742Z,2.88
2017-04-27T00:46:49.169Z,2.89
2017-04-27T00:46:53.605Z,2.89
2017-04-27T00:46:58.024Z,2.89
2017-04-27T00:47:02.450Z,2.89
2017-04-27T00:47:06.759Z,2.89
2017-04-27T00:47:11.188Z,2.89
2017-04-27T00:47:15.499Z,2.88
2017-04-27T00:47:19.922Z,2.89
2017-04-27T00:47:24.361Z,2.89
2017-04-27T00:47:28.670Z,2.89
2017-04-27T00:47:33.095Z,2.9
2017-04-27T00:47:37.521Z,2.89
2017-04-27T00:47:41.955Z,2.89
2017-04-27T00:47:46.380Z,2.89
2017-04-27T00:47:50.810Z,2.89
2017-04-27T00:47:55.246Z,2.9
2017-04-27T00:47:59.668Z,2.89
2017-04-27T00:48:04.098Z,2.89
2017-04-27T00:48:08.423Z,2.9
2017-04-27T00:48:12.741Z,2.9
2017-04-27T00:48:17.167Z,2.9
2017-04-27T00:48:21.595Z,2.9
2017-04-27T00:48:26.019Z,2.9
2017-04-27T00:48:30.442Z,2.9
2017-04-27T00:48:34.748Z,2.89
2017-04-27T00:48:39.180Z,2.9
2017-04-27T00:48:43.612Z,2.9
2017-04-27T00:48:48.041Z,2.9
2017-04-27T00:48:52.467Z,2.89
2017-04-27T00:48:56.901Z,2.9
2017-04-27T00:49:01.205Z,2.9
2017-04-27T00:49:05.634Z,2.9
2017-04-27T00:49:09.943Z,2.9
2017-04-27T00:49:14.170Z,2.9
2017-04-27T00:49:18.598Z,2.9
2017-04-27T00:49:23.024Z,2.9
2017-04-27T00:49:27.447Z,2.91
2017-04-27T00:49:31.872Z,2.9
2017-04-27T00:49:36.180Z,2.9
2017-04-27T00:49:40.636Z,2.9
2017-04-27T00:49:44.949Z,2.91
2017-04-27T00:49:49.379Z,2.91
2017-04-27T00:49:53.806Z,2.91
2017-04-27T00:49:58.229Z,2.9
2017-04-27T00:50:02.706Z,2.91
2017-04-27T00:50:07.031Z,2.91
2017-04-27T00:50:11.453Z,2.91
2017-04-27T00:50:15.761Z,2.91
2017-04-27T00:50:20.197Z,2.9
2017-04-27T00:50:24.624Z,2.9
2017-04-27T00:50:28.931Z,2.91
2017-04-27T00:50:33.239Z,2.9
2017-04-27T00:50:37.435Z,2.9
2017-04-27T00:50:41.744Z,2.9
2017-04-27T00:50:46.165Z,2.9
2017-04-27T00:50:50.585Z,2.9
2017-04-27T00:50:55.016Z,2.89
2017-04-27T00:50:59.439Z,2.9
2017-04-27T00:51:03.872Z,2.9
2017-04-27T00:51:08.296Z,2.89
2017-04-27T00:51:12.610Z,2.9
2017-04-27T00:51:17.067Z,2.89
2017-04-27T00:51:21.493Z,2.9
2017-04-27T00:51:25.686Z,2.89
2017-04-27T00:51:30.115Z,2.89
2017-04-27T00:51:34.553Z,2.88
2017-04-27T00:51:38.982Z,2.89
2017-04-27T00:51:43.409Z,2.89
2017-04-27T00:51:47.838Z,2.88
2017-04-27T00:51:52.305Z,2.89
2017-04-27T00:51:56.740Z,2.89
2017-04-27T00:52:01.176Z,2.89
2017-04-27T00:52:05.605Z,2.88
2017-04-27T00:52:09.908Z,2.89
2017-04-27T00:52:13.978Z,2.89
2017-04-27T00:52:18.411Z,2.89
2017-04-27T00:52:22.837Z,2.89
2017-04-27T00:52:27.145Z,2.89
2017-04-27T00:52:31.569Z,2.88
2017-04-27T00:52:35.997Z,2.89
2017-04-27T00:52:40.423Z,2.88
2017-04-27T00:52:44.852Z,2.89
2017-04-27T00:52:49.283Z,2.88
2017-04-27T00:52:53.726Z,2.88
2017-04-27T00:52:58.156Z,2.88
2017-04-27T00:53:02.584Z,2.88
2017-04-27T00:53:07.045Z,2.87
2017-04-27T00:53:11.349Z,2.87
2017-04-27T00:53:15.310Z,2.88
2017-04-27T00:53:19.746Z,2.87
2017-04-27T00:53:24.171Z,2.88
2017-04-27T00:53:28.478Z,2.89
2017-04-27T00:53:32.787Z,2.88
2017-04-27T00:53:37.207Z,2.87
2017-04-27T00:53:41.666Z,2.87
2017-04-27T00:53:46.089Z,2.87
2017-04-27T00:53:50.518Z,2.88
2017-04-27T00:53:54.943Z,2.87
2017-04-27T00:53:59.370Z,2.87
2017-04-27T00:54:03.681Z,2.87
2017-04-27T00:54:08.000Z,2.87
2017-04-27T00:54:12.321Z,2.86
2017-04-27T00:54:16.516Z,2.86
2017-04-27T00:54:20.941Z,2.87
2017-04-27T00:54:25.364Z,2.87
2017-04-27T00:54:29.836Z,2.86
2017-04-27T00:54:34.143Z,2.86
2017-04-27T00:54:38.573Z,2.86
2017-04-27T00:54:42.887Z,2.87
2017-04-27T00:54:47.197Z,2.86
2017-04-27T00:54:51.519Z,2.86
2017-04-27T00:54:55.960Z,2.85
2017-04-27T00:55:00.385Z,2.86
2017-04-27T00:55:04.998Z,2.86
2017-04-27T00:55:09.305Z,2.85
2017-04-27T00:55:13.634Z,2.85
2017-04-27T00:55:18.057Z,2.84
2017-04-27T00:55:22.488Z,2.84
2017-04-27T00:55:26.805Z,2.84
2017-04-27T00:55:31.029Z,2.83
2017-04-27T00:55:35.222Z,2.84
2017-04-27T00:55:39.646Z,2.84
2017-04-27T00:55:44.074Z,2.84
2017-04-27T00:55:48.504Z,2.83
2017-04-27T00:55:52.935Z,2.83
2017-04-27T00:55:57.364Z,2.83
2017-04-27T00:56:01.789Z,2.83
2017-04-27T00:56:06.097Z,2.82
2017-04-27T00:56:10.523Z,2.82
2017-04-27T00:56:14.830Z,2.81
2017-04-27T00:56:19.139Z,2.82
2017-04-27T00:56:23.332Z,2.81
2017-04-27T00:56:27.767Z,2.8
2017-04-27T00:56:32.195Z,2.8
2017-04-27T00:56:36.623Z,2.8
2017-04-27T00:56:41.053Z,2.8
2017-04-27T00:56:45.477Z,2.79
2017-04-27T00:56:49.903Z,2.8
2017-04-27T00:56:54.324Z,2.8
2017-04-27T00:56:58.751Z,2.79
2017-04-27T00:57:03.288Z,2.78
2017-04-27T00:57:07.713Z,2.78
2017-04-27T00:57:11.910Z,2.79
2017-04-27T00:57:16.227Z,2.78
2017-04-27T00:57:20.538Z,2.79
2017-04-27T00:57:24.845Z,2.78
2017-04-27T00:57:29.283Z,2.78
2017-04-27T00:57:33.596Z,2.78
2017-04-27T00:57:38.025Z,2.77
2017-04-27T00:57:42.452Z,2.77
2017-04-27T00:57:46.893Z,2.76
2017-04-27T00:57:51.349Z,2.76
2017-04-27T00:57:55.663Z,2.76
2017-04-27T00:57:59.981Z,2.77
2017-04-27T00:58:04.554Z,2.76
2017-04-27T00:58:08.756Z,2.76
2017-04-27T00:58:13.182Z,2.75
2017-04-27T00:58:17.256Z,2.75
2017-04-27T00:58:21.692Z,2.75
2017-04-27T00:58:26.127Z,2.75
2017-04-27T00:58:30.565Z,2.75
2017-04-27T00:58:34.996Z,2.75
2017-04-27T00:58:39.428Z,2.75
2017-04-27T00:58:43.862Z,2.74
2017-04-27T00:58:48.343Z,2.75
2017-04-27T00:58:52.772Z,2.75